Altmar, New York
Current Conditions -  °F | °C
As of 5:03 AM on Sunday 28 Dec 2014 (Local Time) from KFZY Reporting Station
Light Rain Light Rain  
Wind Chill: 34°   Ceiling: 800
Heat Index: 41°   Visibility: 7mi
Dew Point: 37°   Wind: 12mph
Humidity: 86%   Direction: 290°WNW
Pressure: 29.84"   Gusts: NA
Location:  43.51°N, 76°W
Report Text: KFZY 281003Z AUTO 29010KT 7SM -RA BKN008 BKN014 OVC026 05/03 A2984 RMK AO2 P0001 T00500028
Loading
Personal Weather Stations






























Interactive Weather Map New forecast layout! Learn more

10-Day Weather Forecast

Advertisements
Track Severe Weather on mobile